EJU1975 LIML-ELLX
Flight info
| Callsign | EJU1975 |
|---|---|
| Flight time | 0h 57m |
| Altitude | 34000 |
| Route | ARLES2A ARLES DCT PUNSA DCT VADEM DCT GILIR DCT PENDU DCT IXILU DCT EPL G21 GIVOR GIVOR2B |
| Aircraft | A319/M-VGDW/C |
Departure
| Time | 2026-05-07 05:15 |
|---|---|
| Airport | Milano Linate Airport (LIML) |
Arrival
| Time | 2026-05-07 06:13 |
|---|---|
| Airport | Luxembourg-Findel International Airport (ELLX) |
| Time | Latitude | Longitude | Altitude | Speed | Heading |
|---|---|---|---|---|---|
| 2026-05-07 04:52 | 45.45984 | 9.27849 | 363 ft | 0 kts | 1° |
| 2026-05-07 05:06 | 45.45960 | 9.27848 | 363 ft | 3 kts | 1° |
| 2026-05-07 05:06 | 45.45933 | 9.27848 | 363 ft | 3 kts | 358° |
| 2026-05-07 05:06 | 45.45913 | 9.27866 | 363 ft | 3 kts | 301° |
| 2026-05-07 05:06 | 45.45908 | 9.27887 | 363 ft | 0 kts | 271° |
| 2026-05-07 05:08 | 45.45908 | 9.27882 | 363 ft | 1 kts | 270° |
| 2026-05-07 05:08 | 45.45907 | 9.27858 | 363 ft | 3 kts | 253° |
| 2026-05-07 05:09 | 45.45882 | 9.27828 | 363 ft | 5 kts | 194° |
| 2026-05-07 05:09 | 45.45834 | 9.27825 | 363 ft | 7 kts | 181° |
| 2026-05-07 05:09 | 45.45770 | 9.27823 | 362 ft | 10 kts | 180° |
| 2026-05-07 05:09 | 45.45690 | 9.27821 | 361 ft | 12 kts | 180° |
| 2026-05-07 05:10 | 45.45599 | 9.27820 | 361 ft | 13 kts | 180° |
| 2026-05-07 05:10 | 45.45498 | 9.27819 | 360 ft | 15 kts | 174° |
| 2026-05-07 05:10 | 45.45460 | 9.27938 | 361 ft | 10 kts | 101° |
| 2026-05-07 05:10 | 45.45402 | 9.27978 | 361 ft | 10 kts | 186° |
| 2026-05-07 05:11 | 45.45325 | 9.27932 | 360 ft | 13 kts | 206° |
| 2026-05-07 05:11 | 45.45234 | 9.27880 | 359 ft | 15 kts | 193° |
| 2026-05-07 05:11 | 45.45125 | 9.27877 | 358 ft | 17 kts | 175° |
| 2026-05-07 05:11 | 45.44999 | 9.27890 | 358 ft | 18 kts | 175° |
| 2026-05-07 05:12 | 45.44869 | 9.27932 | 357 ft | 19 kts | 166° |
| 2026-05-07 05:12 | 45.44733 | 9.27957 | 356 ft | 20 kts | 174° |
| 2026-05-07 05:12 | 45.44592 | 9.27968 | 355 ft | 20 kts | 177° |
| 2026-05-07 05:12 | 45.44442 | 9.27985 | 353 ft | 21 kts | 175° |
| 2026-05-07 05:13 | 45.44288 | 9.28005 | 352 ft | 22 kts | 174° |
| 2026-05-07 05:13 | 45.44125 | 9.28018 | 350 ft | 23 kts | 176° |
| 2026-05-07 05:13 | 45.43956 | 9.28040 | 348 ft | 24 kts | 173° |
| 2026-05-07 05:13 | 45.43785 | 9.28058 | 347 ft | 24 kts | 176° |
| 2026-05-07 05:14 | 45.43613 | 9.28078 | 345 ft | 24 kts | 175° |
| 2026-05-07 05:14 | 45.43465 | 9.28054 | 344 ft | 14 kts | 226° |
| 2026-05-07 05:14 | 45.43444 | 9.27936 | 344 ft | 13 kts | 273° |
| 2026-05-07 05:14 | 45.43474 | 9.27822 | 344 ft | 13 kts | 338° |
| 2026-05-07 05:15 | 45.43569 | 9.27808 | 345 ft | 16 kts | 356° |
| 2026-05-07 05:15 | 45.43925 | 9.27769 | 348 ft | 90 kts | 355° |
| 2026-05-07 05:15 | 45.44804 | 9.27671 | 375 ft | 154 kts | 357° |
| 2026-05-07 05:15 | 45.45906 | 9.27554 | 972 ft | 163 kts | 353° |
| 2026-05-07 05:16 | 45.46997 | 9.27241 | 1760 ft | 166 kts | 343° |
| 2026-05-07 05:16 | 45.48099 | 9.26757 | 2461 ft | 172 kts | 342° |
| 2026-05-07 05:16 | 45.49273 | 9.26183 | 3034 ft | 186 kts | 341° |
| 2026-05-07 05:16 | 45.50547 | 9.25511 | 3546 ft | 207 kts | 341° |
| 2026-05-07 05:17 | 45.51952 | 9.24788 | 4140 ft | 225 kts | 341° |
| 2026-05-07 05:17 | 45.53480 | 9.23996 | 4755 ft | 244 kts | 340° |
| 2026-05-07 05:17 | 45.55131 | 9.23144 | 5362 ft | 262 kts | 340° |
| 2026-05-07 05:17 | 45.56918 | 9.22250 | 6051 ft | 277 kts | 341° |
| 2026-05-07 05:18 | 45.58728 | 9.21358 | 6949 ft | 282 kts | 341° |
| 2026-05-07 05:18 | 45.60530 | 9.20272 | 7920 ft | 284 kts | 333° |
| 2026-05-07 05:18 | 45.62220 | 9.18815 | 8878 ft | 286 kts | 322° |
| 2026-05-07 05:18 | 45.63482 | 9.16697 | 9796 ft | 287 kts | 296° |
| 2026-05-07 05:19 | 45.63983 | 9.13932 | 10682 ft | 291 kts | 272° |
| 2026-05-07 05:19 | 45.64007 | 9.11030 | 11438 ft | 298 kts | 270° |
| 2026-05-07 05:19 | 45.64104 | 9.08089 | 12288 ft | 302 kts | 274° |
| 2026-05-07 05:19 | 45.64334 | 9.05096 | 13169 ft | 304 kts | 277° |
| 2026-05-07 05:20 | 45.64864 | 9.02201 | 13986 ft | 308 kts | 289° |
| 2026-05-07 05:20 | 45.65808 | 8.99436 | 14791 ft | 311 kts | 298° |
| 2026-05-07 05:20 | 45.66935 | 8.96819 | 15559 ft | 315 kts | 301° |
| 2026-05-07 05:20 | 45.68117 | 8.94172 | 16309 ft | 318 kts | 301° |
| 2026-05-07 05:21 | 45.69316 | 8.91496 | 17044 ft | 321 kts | 301° |
| 2026-05-07 05:21 | 45.71718 | 8.86095 | 18465 ft | 327 kts | 301° |
| 2026-05-07 05:21 | 45.72964 | 8.83278 | 18962 ft | 337 kts | 301° |
| 2026-05-07 05:22 | 45.74223 | 8.80428 | 19546 ft | 343 kts | 301° |
| 2026-05-07 05:22 | 45.75484 | 8.77570 | 20207 ft | 346 kts | 301° |
| 2026-05-07 05:22 | 45.76776 | 8.74640 | 20872 ft | 348 kts | 300° |
| 2026-05-07 05:22 | 45.78068 | 8.71700 | 21522 ft | 351 kts | 300° |
| 2026-05-07 05:23 | 45.79372 | 8.68725 | 22154 ft | 354 kts | 300° |
| 2026-05-07 05:23 | 45.80676 | 8.65753 | 22772 ft | 357 kts | 300° |
| 2026-05-07 05:23 | 45.82007 | 8.62712 | 23374 ft | 360 kts | 300° |
| 2026-05-07 05:23 | 45.83340 | 8.59663 | 23965 ft | 363 kts | 301° |
| 2026-05-07 05:24 | 45.84672 | 8.56616 | 24520 ft | 366 kts | 300° |
| 2026-05-07 05:24 | 45.86032 | 8.53488 | 25075 ft | 369 kts | 300° |
| 2026-05-07 05:24 | 45.87388 | 8.50367 | 25584 ft | 372 kts | 300° |
| 2026-05-07 05:24 | 45.88767 | 8.47191 | 26074 ft | 375 kts | 300° |
| 2026-05-07 05:25 | 45.90143 | 8.44013 | 26542 ft | 378 kts | 300° |
| 2026-05-07 05:25 | 45.91528 | 8.40809 | 27007 ft | 380 kts | 300° |
| 2026-05-07 05:25 | 45.92928 | 8.37571 | 27485 ft | 383 kts | 300° |
| 2026-05-07 05:25 | 45.94349 | 8.34269 | 27923 ft | 386 kts | 299° |
| 2026-05-07 05:26 | 45.95771 | 8.30957 | 28344 ft | 388 kts | 299° |
| 2026-05-07 05:26 | 45.97195 | 8.27637 | 28820 ft | 391 kts | 299° |
| 2026-05-07 05:26 | 45.98601 | 8.24351 | 29202 ft | 394 kts | 299° |
| 2026-05-07 05:26 | 46.00048 | 8.20968 | 29561 ft | 396 kts | 299° |
| 2026-05-07 05:27 | 46.01491 | 8.17588 | 29940 ft | 398 kts | 298° |
| 2026-05-07 05:27 | 46.02941 | 8.14185 | 30289 ft | 400 kts | 298° |
| 2026-05-07 05:27 | 46.04403 | 8.10748 | 30620 ft | 403 kts | 299° |
| 2026-05-07 05:27 | 46.05862 | 8.07315 | 30921 ft | 406 kts | 299° |
| 2026-05-07 05:28 | 46.07342 | 8.03832 | 31185 ft | 408 kts | 299° |
| 2026-05-07 05:28 | 46.08821 | 8.00363 | 31448 ft | 410 kts | 299° |
| 2026-05-07 05:28 | 46.10334 | 7.96831 | 31719 ft | 412 kts | 299° |
| 2026-05-07 05:28 | 46.11843 | 7.93309 | 32051 ft | 412 kts | 299° |
| 2026-05-07 05:29 | 46.13356 | 7.89773 | 32386 ft | 411 kts | 299° |
| 2026-05-07 05:29 | 46.14862 | 7.86246 | 32668 ft | 412 kts | 299° |
| 2026-05-07 05:29 | 46.16346 | 7.82763 | 32916 ft | 413 kts | 299° |
| 2026-05-07 05:29 | 46.17853 | 7.79216 | 33172 ft | 414 kts | 299° |
| 2026-05-07 05:30 | 46.19356 | 7.75680 | 33417 ft | 415 kts | 299° |
| 2026-05-07 05:30 | 46.20876 | 7.72099 | 33666 ft | 416 kts | 299° |
| 2026-05-07 05:30 | 46.22396 | 7.68514 | 33895 ft | 417 kts | 299° |
| 2026-05-07 05:31 | 46.25436 | 7.61323 | 33968 ft | 418 kts | 299° |
| 2026-05-07 05:31 | 46.28814 | 7.54512 | 34003 ft | 423 kts | 311° |
| 2026-05-07 05:32 | 46.33469 | 7.49220 | 34009 ft | 428 kts | 327° |
| 2026-05-07 05:32 | 46.38813 | 7.45379 | 34003 ft | 428 kts | 332° |
| 2026-05-07 05:33 | 46.44176 | 7.41697 | 34005 ft | 428 kts | 332° |
| 2026-05-07 05:33 | 46.49565 | 7.37967 | 33996 ft | 427 kts | 332° |
| 2026-05-07 05:34 | 46.54918 | 7.34241 | 33996 ft | 427 kts | 331° |
| 2026-05-07 05:34 | 46.60289 | 7.30485 | 33999 ft | 427 kts | 331° |
| 2026-05-07 05:35 | 46.65670 | 7.26713 | 34012 ft | 427 kts | 331° |
| 2026-05-07 05:35 | 46.71073 | 7.22913 | 34008 ft | 437 kts | 332° |
| 2026-05-07 05:36 | 46.76582 | 7.19029 | 34009 ft | 442 kts | 332° |
| 2026-05-07 05:36 | 46.82155 | 7.15096 | 34001 ft | 443 kts | 332° |
| 2026-05-07 05:37 | 46.87706 | 7.11169 | 33995 ft | 444 kts | 332° |
| 2026-05-07 05:37 | 46.93268 | 7.07224 | 33997 ft | 444 kts | 332° |
| 2026-05-07 05:38 | 46.98836 | 7.03264 | 34005 ft | 443 kts | 332° |
| 2026-05-07 05:38 | 47.04374 | 6.99317 | 34002 ft | 443 kts | 332° |
| 2026-05-07 05:39 | 47.09886 | 6.95380 | 33994 ft | 442 kts | 332° |
| 2026-05-07 05:39 | 47.15483 | 6.91373 | 33990 ft | 443 kts | 332° |
| 2026-05-07 05:40 | 47.20998 | 6.87417 | 33991 ft | 442 kts | 332° |
| 2026-05-07 05:40 | 47.26530 | 6.83437 | 33983 ft | 443 kts | 332° |
| 2026-05-07 05:41 | 47.32078 | 6.79436 | 33991 ft | 444 kts | 333° |
| 2026-05-07 05:41 | 47.37599 | 6.75446 | 34005 ft | 443 kts | 333° |
| 2026-05-07 05:42 | 47.43117 | 6.71450 | 34002 ft | 444 kts | 333° |
| 2026-05-07 05:42 | 47.48677 | 6.67414 | 34001 ft | 443 kts | 333° |
| 2026-05-07 05:43 | 47.54179 | 6.63409 | 34009 ft | 443 kts | 333° |
| 2026-05-07 05:43 | 47.59704 | 6.59379 | 33999 ft | 443 kts | 333° |
| 2026-05-07 05:44 | 47.65239 | 6.55334 | 34002 ft | 443 kts | 333° |
| 2026-05-07 05:44 | 47.70776 | 6.51276 | 34001 ft | 443 kts | 333° |
| 2026-05-07 05:45 | 47.76308 | 6.47210 | 34005 ft | 443 kts | 333° |
| 2026-05-07 05:45 | 47.81865 | 6.43115 | 34000 ft | 443 kts | 333° |
| 2026-05-07 05:46 | 47.87367 | 6.39053 | 34006 ft | 443 kts | 333° |
| 2026-05-07 05:46 | 47.92881 | 6.34973 | 33998 ft | 443 kts | 333° |
| 2026-05-07 05:47 | 47.98396 | 6.30882 | 34004 ft | 442 kts | 333° |
| 2026-05-07 05:47 | 48.01124 | 6.28855 | 33991 ft | 429 kts | 333° |
| 2026-05-07 05:47 | 48.03793 | 6.26869 | 33661 ft | 430 kts | 333° |
| 2026-05-07 05:47 | 48.06454 | 6.24883 | 32988 ft | 437 kts | 333° |
| 2026-05-07 05:48 | 48.09203 | 6.22829 | 32347 ft | 440 kts | 333° |
| 2026-05-07 05:48 | 48.11972 | 6.20758 | 31666 ft | 441 kts | 334° |
| 2026-05-07 05:48 | 48.14712 | 6.18709 | 30976 ft | 440 kts | 334° |
| 2026-05-07 05:48 | 48.17397 | 6.16702 | 30484 ft | 432 kts | 334° |
| 2026-05-07 05:49 | 48.20066 | 6.14704 | 30101 ft | 422 kts | 334° |
| 2026-05-07 05:49 | 48.22669 | 6.12752 | 29706 ft | 414 kts | 334° |
| 2026-05-07 05:49 | 48.25240 | 6.10820 | 29238 ft | 408 kts | 333° |
| 2026-05-07 05:49 | 48.27735 | 6.08949 | 28764 ft | 402 kts | 334° |
| 2026-05-07 05:50 | 48.30386 | 6.07665 | 28223 ft | 397 kts | 354° |
| 2026-05-07 05:50 | 48.33128 | 6.07909 | 27742 ft | 393 kts | 13° |
| 2026-05-07 05:50 | 48.35589 | 6.09467 | 27279 ft | 388 kts | 31° |
| 2026-05-07 05:50 | 48.37842 | 6.11659 | 26840 ft | 384 kts | 32° |
| 2026-05-07 05:51 | 48.40077 | 6.13877 | 26411 ft | 379 kts | 32° |
| 2026-05-07 05:51 | 48.42245 | 6.16019 | 26003 ft | 374 kts | 32° |
| 2026-05-07 05:51 | 48.44429 | 6.18163 | 25591 ft | 370 kts | 32° |
| 2026-05-07 05:51 | 48.46563 | 6.20251 | 25177 ft | 366 kts | 32° |
| 2026-05-07 05:52 | 48.48681 | 6.22320 | 24776 ft | 362 kts | 32° |
| 2026-05-07 05:52 | 48.50782 | 6.24371 | 24351 ft | 360 kts | 32° |
| 2026-05-07 05:52 | 48.52883 | 6.26424 | 23924 ft | 357 kts | 32° |
| 2026-05-07 05:52 | 48.54942 | 6.28437 | 23514 ft | 355 kts | 32° |
| 2026-05-07 05:53 | 48.57028 | 6.30478 | 23082 ft | 354 kts | 32° |
| 2026-05-07 05:53 | 48.59081 | 6.32490 | 22681 ft | 352 kts | 31° |
| 2026-05-07 05:53 | 48.61121 | 6.34489 | 22282 ft | 350 kts | 32° |
| 2026-05-07 05:53 | 48.63136 | 6.36467 | 21893 ft | 347 kts | 31° |
| 2026-05-07 05:54 | 48.65241 | 6.38212 | 21507 ft | 343 kts | 21° |
| 2026-05-07 05:54 | 48.67509 | 6.39243 | 21112 ft | 340 kts | 9° |
| 2026-05-07 05:54 | 48.69858 | 6.39638 | 20739 ft | 337 kts | 3° |
| 2026-05-07 05:54 | 48.72178 | 6.39865 | 20360 ft | 335 kts | 2° |
| 2026-05-07 05:55 | 48.74513 | 6.40075 | 19960 ft | 334 kts | 2° |
| 2026-05-07 05:55 | 48.76827 | 6.40287 | 19570 ft | 332 kts | 1° |
| 2026-05-07 05:55 | 48.79111 | 6.40503 | 19194 ft | 331 kts | 2° |
| 2026-05-07 05:55 | 48.81409 | 6.40725 | 18804 ft | 330 kts | 2° |
| 2026-05-07 05:56 | 48.83682 | 6.40950 | 18417 ft | 329 kts | 2° |
| 2026-05-07 05:56 | 48.85960 | 6.41176 | 18029 ft | 328 kts | 2° |
| 2026-05-07 05:56 | 48.88229 | 6.41402 | 17624 ft | 327 kts | 2° |
| 2026-05-07 05:56 | 48.90509 | 6.41634 | 17209 ft | 327 kts | 2° |
| 2026-05-07 05:57 | 48.92768 | 6.41864 | 16819 ft | 326 kts | 2° |
| 2026-05-07 05:57 | 48.95029 | 6.42095 | 16427 ft | 325 kts | 2° |
| 2026-05-07 05:57 | 48.97279 | 6.42325 | 16030 ft | 324 kts | 2° |
| 2026-05-07 05:57 | 48.99521 | 6.42554 | 15634 ft | 323 kts | 2° |
| 2026-05-07 05:58 | 49.01739 | 6.42781 | 15246 ft | 322 kts | 2° |
| 2026-05-07 05:58 | 49.03956 | 6.43008 | 14860 ft | 321 kts | 2° |
| 2026-05-07 05:58 | 49.06204 | 6.43238 | 14471 ft | 320 kts | 2° |
| 2026-05-07 05:58 | 49.08416 | 6.43465 | 14084 ft | 318 kts | 2° |
| 2026-05-07 05:59 | 49.10593 | 6.43688 | 13694 ft | 317 kts | 2° |
| 2026-05-07 05:59 | 49.12795 | 6.43914 | 13303 ft | 315 kts | 2° |
| 2026-05-07 05:59 | 49.14970 | 6.44137 | 12912 ft | 314 kts | 2° |
| 2026-05-07 05:59 | 49.17140 | 6.44361 | 12520 ft | 312 kts | 2° |
| 2026-05-07 06:00 | 49.19301 | 6.44582 | 12133 ft | 310 kts | 2° |
| 2026-05-07 06:00 | 49.21469 | 6.44618 | 11723 ft | 307 kts | 352° |
| 2026-05-07 06:00 | 49.23546 | 6.43895 | 11332 ft | 304 kts | 339° |
| 2026-05-07 06:00 | 49.25470 | 6.42658 | 10956 ft | 301 kts | 335° |
| 2026-05-07 06:01 | 49.27365 | 6.41334 | 10576 ft | 299 kts | 334° |
| 2026-05-07 06:01 | 49.29264 | 6.40001 | 10199 ft | 293 kts | 334° |
| 2026-05-07 06:01 | 49.31047 | 6.38760 | 10025 ft | 275 kts | 334° |
| 2026-05-07 06:01 | 49.32772 | 6.37566 | 9911 ft | 271 kts | 335° |
| 2026-05-07 06:02 | 49.34496 | 6.36377 | 9557 ft | 271 kts | 335° |
| 2026-05-07 06:02 | 49.36215 | 6.35194 | 9214 ft | 269 kts | 334° |
| 2026-05-07 06:02 | 49.37922 | 6.34082 | 8883 ft | 267 kts | 338° |
| 2026-05-07 06:02 | 49.39696 | 6.33235 | 8542 ft | 266 kts | 345° |
| 2026-05-07 06:03 | 49.41487 | 6.32620 | 8213 ft | 264 kts | 346° |
| 2026-05-07 06:03 | 49.43300 | 6.32040 | 7880 ft | 263 kts | 347° |
| 2026-05-07 06:03 | 49.45089 | 6.31470 | 7552 ft | 261 kts | 347° |
| 2026-05-07 06:03 | 49.46864 | 6.30902 | 7224 ft | 259 kts | 347° |
| 2026-05-07 06:04 | 49.48616 | 6.30302 | 6887 ft | 258 kts | 341° |
| 2026-05-07 06:04 | 49.50131 | 6.28891 | 6521 ft | 256 kts | 312° |
| 2026-05-07 06:04 | 49.50986 | 6.26541 | 6179 ft | 256 kts | 285° |
| 2026-05-07 06:04 | 49.51046 | 6.23825 | 5844 ft | 258 kts | 259° |
| 2026-05-07 06:05 | 49.50484 | 6.21187 | 5532 ft | 257 kts | 252° |
| 2026-05-07 06:05 | 49.49880 | 6.18627 | 5219 ft | 256 kts | 252° |
| 2026-05-07 06:05 | 49.49287 | 6.16094 | 5139 ft | 244 kts | 252° |
| 2026-05-07 06:05 | 49.48736 | 6.13718 | 5117 ft | 230 kts | 253° |
| 2026-05-07 06:06 | 49.48214 | 6.11437 | 5089 ft | 217 kts | 253° |
| 2026-05-07 06:06 | 49.47728 | 6.09312 | 5049 ft | 205 kts | 253° |
| 2026-05-07 06:06 | 49.47272 | 6.07313 | 5007 ft | 194 kts | 253° |
| 2026-05-07 06:06 | 49.46825 | 6.05343 | 4904 ft | 192 kts | 253° |
| 2026-05-07 06:07 | 49.46573 | 6.03361 | 4719 ft | 188 kts | 283° |
| 2026-05-07 06:07 | 49.47218 | 6.01719 | 4458 ft | 183 kts | 327° |
| 2026-05-07 06:07 | 49.48341 | 6.00839 | 4202 ft | 184 kts | 337° |
| 2026-05-07 06:07 | 49.49515 | 6.00042 | 3970 ft | 180 kts | 336° |
| 2026-05-07 06:08 | 49.50648 | 5.99202 | 3607 ft | 182 kts | 334° |
| 2026-05-07 06:08 | 49.51761 | 5.98310 | 3339 ft | 178 kts | 333° |
| 2026-05-07 06:08 | 49.52922 | 5.97850 | 3076 ft | 173 kts | 6° |
| 2026-05-07 06:08 | 49.53944 | 5.98651 | 2996 ft | 159 kts | 41° |
| 2026-05-07 06:09 | 49.54625 | 5.99899 | 2974 ft | 147 kts | 52° |
| 2026-05-07 06:09 | 49.55190 | 6.01194 | 2988 ft | 145 kts | 53° |
| 2026-05-07 06:09 | 49.55731 | 6.02517 | 2992 ft | 145 kts | 55° |
| 2026-05-07 06:09 | 49.56250 | 6.03858 | 2995 ft | 145 kts | 56° |
| 2026-05-07 06:10 | 49.56754 | 6.05202 | 2996 ft | 146 kts | 57° |
| 2026-05-07 06:10 | 49.57249 | 6.06546 | 2962 ft | 141 kts | 57° |
| 2026-05-07 06:10 | 49.57722 | 6.07841 | 2754 ft | 133 kts | 57° |
| 2026-05-07 06:10 | 49.58167 | 6.09059 | 2573 ft | 131 kts | 57° |
| 2026-05-07 06:11 | 49.58622 | 6.10286 | 2388 ft | 131 kts | 56° |
| 2026-05-07 06:11 | 49.59070 | 6.11504 | 2234 ft | 132 kts | 56° |
| 2026-05-07 06:11 | 49.59528 | 6.12746 | 2068 ft | 132 kts | 57° |
| 2026-05-07 06:11 | 49.59974 | 6.13987 | 1883 ft | 131 kts | 57° |
| 2026-05-07 06:12 | 49.60426 | 6.15203 | 1692 ft | 130 kts | 56° |
| 2026-05-07 06:12 | 49.60883 | 6.16419 | 1515 ft | 131 kts | 56° |
| 2026-05-07 06:12 | 49.61343 | 6.17650 | 1361 ft | 132 kts | 57° |
| 2026-05-07 06:12 | 49.61796 | 6.18868 | 1200 ft | 130 kts | 57° |
| 2026-05-07 06:13 | 49.62220 | 6.19996 | 1214 ft | 103 kts | 60° |
| 2026-05-07 06:13 | 49.62490 | 6.20734 | 1236 ft | 59 kts | 60° |
| 2026-05-07 06:13 | 49.62666 | 6.21101 | 1238 ft | 32 kts | 33° |
| 2026-05-07 06:13 | 49.62848 | 6.21274 | 1237 ft | 26 kts | 32° |
| 2026-05-07 06:14 | 49.62930 | 6.21337 | 1236 ft | 7 kts | 13° |
| 2026-05-07 06:14 | 49.62985 | 6.21365 | 1236 ft | 9 kts | 33° |
| 2026-05-07 06:14 | 49.63025 | 6.21461 | 1235 ft | 12 kts | 58° |
| 2026-05-07 06:14 | 49.63081 | 6.21588 | 1232 ft | 15 kts | 35° |
| 2026-05-07 06:15 | 49.63170 | 6.21571 | 1233 ft | 9 kts | 288° |
| 2026-05-07 06:15 | 49.63157 | 6.21502 | 1234 ft | 0 kts | 239° |